Latest Weather Observations for Lismore Airport

IDN60801

Issued at 8:02 pm EST Wednesday 5 August 2015 (issued every 30 minutes, with the page automatically refreshed every 10 minutes)

About weather observations | Map of weather stations | Latest weather observations for NSW | Other Formats
Station Details ID: 058214 Name: LISMORE AIRPORT AWS Lat: -28.83 Lon: 153.26 Height: 9.21 m
Data from the previous 72 hours. | See also: Recent months at Lismore Airport
Date/Time
EST
Temp
°C
App
Temp
°C
Dew
Point
Rel
Hum
%
Delta-T
°C
Wind Press
QNH
hPa
Press
MSL
hPa
Rain
since 9 am
mm
Dir
 
Spd
km/h
Gust
km/h
Spd
kts
Gust
kts
05/08:00pm 13.3 5.8 -1.1 37 5.8 WNW 28 37 15 20 1014.9 1014.9 0.0
05/07:30pm 13.9 6.5 -0.5 37 5.9 WNW 28 43 15 23 1014.7 1014.7 0.0
05/07:00pm 13.5 7.7 -0.2 39 5.7 WNW 20 30 11 16 1014.4 1014.4 0.0
05/06:30pm 13.7 8.5 0.4 40 5.6 WNW 17 26 9 14 1013.8 1013.8 0.0
05/06:00pm 12.4 7.7 0.8 45 4.9 WNW 15 24 8 13 1013.5 1013.5 0.0
05/05:30pm 12.8 10.9 2.6 50 4.5 NW 2 7 1 4 1012.9 1012.9 0.0
05/05:00pm 16.0 13.3 2.8 41 6.0 NNW 6 7 3 4 1012.5 1012.5 0.0
05/04:30pm 18.8 15.7 0.4 29 8.1 WNW 6 9 3 5 1012.2 1012.2 0.0
05/04:00pm 18.9 14.6 -1.5 25 8.7 W 11 15 6 8 1012.1 1012.1 0.0
05/03:30pm 19.2 14.5 -1.8 24 8.9 W 13 20 7 11 1012.0 1012.0 0.0
05/03:00pm 19.3 13.9 -1.7 24 8.9 W 17 24 9 13 1012.0 1012.0 0.0
05/02:30pm 19.3 14.5 -2.9 22 9.2 WSW 13 22 7 12 1012.0 1012.0 0.0
05/02:00pm 19.0 13.5 -2.0 24 8.8 WNW 17 26 9 14 1012.1 1012.1 0.0
05/01:30pm 18.8 13.0 -1.6 25 8.6 WNW 19 28 10 15 1012.3 1012.3 0.0
05/01:00pm 18.2 13.5 0.8 31 7.7 W 15 20 8 11 1012.7 1012.7 0.0
05/12:30pm 17.9 12.4 0.6 31 7.6 W 19 28 10 15 1013.3 1013.3 0.0
05/12:00pm 16.8 11.3 0.5 33 7.1 NW 19 26 10 14 1014.0 1014.0 0.0
05/11:30am 15.7 10.3 1.4 38 6.3 WNW 19 26 10 14 1014.8 1014.8 0.0
05/11:00am 15.6 11.1 2.1 40 6.0 WNW 15 26 8 14 1015.3 1015.3 0.0
05/10:30am 14.3 10.0 3.2 47 5.0 NW 15 20 8 11 1015.8 1015.8 0.0
05/10:00am 13.2 8.6 1.5 45 5.0 WNW 15 19 8 10 1016.2 1016.2 0.0
05/09:30am 12.6 8.4 3.8 55 4.0 NW 15 20 8 11 1016.6 1016.6 0.0
05/09:00am 11.1 6.8 3.2 58 3.4 NW 15 22 8 12 1016.6 1016.6 0.0
05/08:30am 9.7 4.4 3.2 64 2.8 NW 20 26 11 14 1016.7 1016.7 0.0
05/08:00am 8.8 4.9 3.4 69 2.3 NNW 13 19 7 10 1016.8 1016.8 0.0
05/07:30am 7.3 4.2 3.5 77 1.6 N 9 11 5 6 1016.9 1016.9 0.0
05/07:00am 4.7 1.8 2.4 85 0.9 ENE 7 9 4 5 1016.9 1016.9 0.0
05/06:30am 3.3 -1.0 0.9 84 0.9 N 13 17 7 9 1016.5 1016.5 0.0
05/06:00am 4.1 1.0 1.3 82 1.1 NNE 7 13 4 7 1016.3 1016.3 0.0
05/05:30am 5.8 3.0 2.3 78 1.4 N 6 9 3 5 1016.0 1016.0 0.0
05/05:00am 5.5 2.1 1.8 77 1.5 N 9 17 5 9 1015.7 1015.7 0.0
05/04:30am 7.7 2.9 2.6 70 2.1 WNW 17 22 9 12 1015.6 1015.6 0.0
05/04:00am 7.0 4.1 2.7 74 1.8 NW 7 15 4 8 1015.5 1015.5 0.0
05/03:30am 5.7 2.9 3.0 83 1.1 ENE 7 11 4 6 1015.4 1015.4 0.0
05/03:00am 6.0 3.7 2.8 80 1.3 NE 4 7 2 4 1015.8 1015.8 0.0
05/02:30am 5.2 2.4 3.4 88 0.7 N 7 9 4 5 1016.1 1016.1 0.0
05/02:00am 6.3 2.8 3.6 83 1.1 N 11 17 6 9 1016.4 1016.4 0.0
05/01:30am 6.8 3.7 3.8 81 1.3 N 9 17 5 9 1016.9 1016.9 0.0
05/01:00am 9.0 6.1 4.4 73 2.0 NNW 9 17 5 9 1017.2 1017.2 0.0
05/12:30am 9.5 5.7 5.7 77 1.7 NW 15 19 8 10 1017.1 1017.1 0.0
05/12:00am 8.7 5.7 5.8 82 1.3 NW 11 15 6 8 1017.2 1017.2 0.0
 
Date/Time
EST
Temp
°C
App
Temp
°C
Dew
Point
Rel
Hum
%
Delta-T
°C
Wind Press
QNH
hPa
Press
MSL
hPa
Rain
since 9 am
mm
Dir
 
Spd
km/h
Gust
km/h
Spd
kts
Gust
kts
04/11:30pm 8.7 6.3 7.0 89 0.8 NW 9 20 5 11 1017.1 1017.1 0.0
04/11:00pm 9.3 7.7 8.2 93 0.5 NNE 6 11 3 6 1017.3 1017.3 0.0
04/10:30pm 9.7 7.3 8.8 94 0.4 NE 11 13 6 7 1017.2 1017.2 0.0
04/10:00pm 10.0 7.3 8.9 93 0.5 N 13 17 7 9 1017.3 1017.3 0.0
04/09:30pm 9.4 6.5 8.3 93 0.5 N 13 17 7 9 1017.3 1017.3 0.0
04/09:00pm 9.4 7.4 8.6 95 0.4 N 9 11 5 6 1017.3 1017.3 0.0
04/08:30pm 9.3 6.8 8.4 94 0.4 N 11 13 6 7 1017.4 1017.4 0.0
04/08:00pm 9.9 9.3 8.8 93 0.5 NNE 2 6 1 3 1017.4 1017.4 0.0
04/07:30pm 10.8 10.7 9.6 92 0.6 CALM 0 0 0 0 1017.3 1017.3 0.0
04/07:00pm 9.8 8.2 7.9 88 0.9 NW 6 9 3 5 1017.4 1017.4 0.0
04/06:30pm 11.0 10.7 8.8 86 1.1 CALM 0 0 0 0 1017.2 1017.2 0.0
04/06:00pm 12.4 12.2 9.1 80 1.7 CALM 0 0 0 0 1017.3 1017.3 0.0
04/05:30pm 13.8 12.4 9.6 76 2.2 ESE 7 9 4 5 1017.0 1017.0 0.0
04/05:00pm 15.3 13.6 9.7 69 2.9 SE 9 13 5 7 1016.9 1016.9 0.0
04/04:30pm 16.6 14.6 10.0 65 3.5 ESE 11 17 6 9 1017.0 1017.0 0.0
04/04:00pm 17.5 15.6 9.2 58 4.3 ESE 9 13 5 7 1017.0 1017.0 0.0
04/03:30pm 17.8 15.6 9.4 58 4.4 ESE 11 17 6 9 1017.2 1017.2 0.0
04/03:00pm 17.4 14.8 9.3 59 4.2 SSE 13 17 7 9 1017.7 1017.7 0.0
04/02:30pm 17.6 16.2 8.7 56 4.6 SE 6 15 3 8 1017.9 1017.9 0.0
04/02:00pm 18.2 16.8 8.7 54 4.9 SSE 6 15 3 8 1018.0 1018.0 0.0
04/01:30pm 17.9 15.8 8.2 53 5.0 S 9 15 5 8 1018.3 1018.3 0.0
04/01:00pm 17.5 14.9 7.8 53 4.9 SE 11 19 6 10 1018.9 1018.9 0.0
04/12:30pm 17.3 14.7 7.6 53 4.9 S 11 20 6 11 1019.1 1019.1 0.0
04/12:00pm 17.4 14.0 7.5 52 5.0 S 15 20 8 11 1019.6 1019.6 0.0
04/11:30am 17.5 14.6 8.1 54 4.8 SSW 13 22 7 12 1020.1 1020.1 0.0
04/11:00am 16.8 13.6 6.9 52 4.9 SW 13 19 7 10 1020.6 1020.6 0.0
04/10:30am 16.8 14.1 7.4 54 4.7 SSW 11 19 6 10 1021.1 1021.1 0.0
04/10:00am 16.7 13.1 6.8 52 4.9 SW 15 20 8 11 1021.2 1021.2 0.0
04/09:30am 15.5 10.9 5.4 51 4.8 SW 19 24 10 13 1021.0 1021.0 0.0
04/09:00am 14.4 10.4 5.0 53 4.4 SW 15 22 8 12 1020.9 1020.9 0.0
04/08:30am 14.7 10.9 6.0 56 4.2 SSW 15 22 8 12 1020.8 1020.8 0.0
04/08:00am 13.8 9.5 5.4 57 3.9 SW 17 24 9 13 1020.6 1020.6 0.0
04/07:30am 13.2 9.1 4.6 56 3.9 SW 15 20 8 11 1020.5 1020.5 0.0
04/07:00am 12.5 10.3 5.2 61 3.4 SW 6 13 3 7 1020.4 1020.4 0.0
04/06:30am 11.7 10.3 5.3 65 2.9 E 2 7 1 4 1020.2 1020.2 0.0
04/06:00am 12.0 10.7 4.2 59 3.5 CALM 0 0 0 0 1019.6 1019.6 0.0
04/05:30am 12.4 10.1 4.9 60 3.4 S 6 13 3 7 1019.1 1019.1 0.0
04/05:00am 12.3 8.3 3.0 53 4.1 S 13 19 7 10 1018.6 1018.6 0.0
04/04:30am 12.4 8.9 3.4 54 4.0 SE 11 15 6 8 1018.5 1018.5 0.0
04/04:00am 12.0 11.0 5.4 64 3.0 CALM 0 7 0 4 1018.4 1018.4 0.0
04/03:30am 12.5 10.7 7.0 69 2.6 S 6 9 3 5 1018.3 1018.3 0.0
04/03:00am 11.2 10.6 7.5 78 1.8 CALM 0 0 0 0 1018.1 1018.1 0.0
04/02:30am 11.4 11.0 8.1 80 1.6 CALM 0 0 0 0 1018.1 1018.1 0.0
04/02:00am 11.3 11.0 8.5 83 1.4 CALM 0 2 0 1 1017.9 1017.9 0.0
04/01:30am 9.1 8.4 6.9 86 1.0 CALM 0 0 0 0 1017.7 1017.7 0.0
04/01:00am 10.3 9.4 6.1 75 1.9 CALM 0 0 0 0 1017.8 1017.8 0.0
04/12:30am 11.5 10.7 6.6 72 2.3 CALM 0 0 0 0 1017.9 1017.9 0.0
04/12:00am 12.5 9.7 6.8 68 2.7 SW 11 15 6 8 1017.7 1017.7 0.0
 
Date/Time
EST
Temp
°C
App
Temp
°C
Dew
Point
Rel
Hum
%
Delta-T
°C
Wind Press
QNH
hPa
Press
MSL
hPa
Rain
since 9 am
mm
Dir
 
Spd
km/h
Gust
km/h
Spd
kts
Gust
kts
03/11:30pm 15.1 14.5 7.4 60 3.8 CALM 0 0 0 0 1017.5 1017.5 0.0
03/11:00pm 15.8 12.9 8.1 60 3.9 W 13 19 7 10 1017.4 1017.4 0.0
03/10:30pm 14.9 13.7 8.2 64 3.4 SSE 4 9 2 5 1017.3 1017.3 0.0
03/10:00pm 15.6 13.3 7.6 59 4.0 SE 9 17 5 9 1017.0 1017.0 0.0
03/09:30pm 17.1 15.1 7.2 52 4.9 E 7 9 4 5 1016.7 1016.7 0.0
03/09:00pm 19.8 15.2 8.2 47 6.0 W 22 30 12 16 1016.4 1016.4 0.0
03/08:30pm 20.2 15.2 6.5 41 6.9 W 22 35 12 19 1016.0 1016.0 0.0
03/08:00pm 20.6 15.5 5.8 38 7.4 WNW 22 26 12 14 1015.5 1015.5 0.0
03/07:30pm 19.2 15.3 7.3 46 6.0 WNW 17 20 9 11 1015.3 1015.3 0.0
03/07:00pm 20.1 16.7 9.1 49 5.8 W 17 20 9 11 1015.2 1015.2 0.0
03/06:30pm 16.9 14.8 11.2 69 3.1 WNW 13 19 7 10 1014.6 1014.6 0.0
03/06:00pm 18.5 17.0 12.0 66 3.6 NNW 11 15 6 8 1014.1 1014.1 0.0
03/05:30pm 19.1 17.8 12.6 66 3.6 NNW 11 13 6 7 1013.6 1013.6 0.0
03/05:00pm 21.2 19.2 12.6 58 4.9 NNW 15 17 8 9 1013.1 1013.1 0.0
03/04:30pm 23.9 21.9 12.8 49 6.4 NNW 15 19 8 10 1012.8 1012.8 0.0
03/04:00pm 25.4 22.8 11.9 43 7.7 NNW 17 20 9 11 1012.5 1012.5 0.0
03/03:30pm 26.4 23.0 11.3 39 8.6 NNW 20 28 11 15 1012.3 1012.3 0.0
03/03:00pm 26.2 22.9 11.5 40 8.4 N 20 28 11 15 1012.4 1012.4 0.0
03/02:30pm 27.4 23.4 10.6 35 9.5 NW 22 35 12 19 1012.5 1012.5 0.0
03/02:00pm 27.4 23.9 10.2 34 9.6 NW 19 30 10 16 1012.7 1012.7 0.0
03/01:30pm 27.4 22.8 9.7 33 9.8 NW 24 35 13 19 1013.1 1013.1 0.0
03/01:00pm 27.7 24.1 10.4 34 9.7 NW 20 33 11 18 1013.4 1013.4 0.0
03/12:30pm 27.2 25.5 12.4 40 8.6 NW 13 24 7 13 1013.9 1013.9 0.0
03/12:00pm 26.0 22.7 11.0 39 8.5 NNW 19 24 10 13 1014.2 1014.2 0.0
03/11:30am 25.3 22.4 12.2 44 7.5 NNW 19 26 10 14 1014.8 1014.8 0.0
03/11:00am 24.6 21.7 12.2 46 7.1 NNW 19 26 10 14 1015.4 1015.4 0.0
03/10:30am 23.7 20.7 12.4 49 6.5 NNW 20 26 11 14 1016.0 1016.0 0.0
03/10:00am 22.5 20.5 13.8 58 5.1 NNW 17 20 9 11 1016.5 1016.5 0.0
03/09:30am 20.2 19.0 15.0 72 3.1 NNW 15 19 8 10 1016.9 1016.9 0.0
03/09:00am 16.8 15.5 13.7 82 1.7 N 13 17 7 9 1016.8 1016.8 0.0
03/08:30am 13.8 12.3 12.0 89 1.0 NNE 11 15 6 8 1017.0 1017.0 0.0
03/08:00am 11.9 9.8 11.0 94 0.5 NNE 13 15 7 8 1017.0 1017.0 0.0
03/07:30am 9.8 7.6 9.2 96 0.3 NNE 11 13 6 7 1016.7 1016.7 0.0
03/07:00am 9.3 6.9 8.8 97 0.2 NNE 11 15 6 8 1016.7 1016.7 0.0
03/06:30am 9.1 6.3 8.6 97 0.2 NNE 13 15 7 8 1016.5 1016.5 0.0
03/06:00am 8.9 6.0 8.3 96 0.3 N 13 15 7 8 1016.3 1016.3 0.0
03/05:30am 9.1 6.7 8.5 96 0.3 N 11 13 6 7 1016.3 1016.3 0.0
03/05:00am 9.3 6.2 8.8 97 0.2 N 15 17 8 9 1016.1 1016.1 0.0
03/04:30am 9.2 6.4 8.6 96 0.3 N 13 15 7 8 1016.0 1016.0 0.0
03/04:00am 10.0 7.1 9.5 97 0.2 N 15 20 8 11 1016.0 1016.0 0.0
03/03:30am 9.3 6.5 8.5 95 0.4 N 13 19 7 10 1016.1 1016.1 0.0
03/03:00am 9.3 6.9 8.5 95 0.4 N 11 13 6 7 1016.4 1016.4 0.0
03/02:30am 9.5 7.1 8.6 94 0.4 N 11 15 6 8 1016.6 1016.6 0.0
03/02:00am 10.5 7.6 9.7 95 0.4 N 15 17 8 9 1016.9 1016.9 0.0
03/01:30am 10.8 7.9 9.6 92 0.6 N 15 17 8 9 1017.2 1017.2 0.0
03/01:00am 11.1 7.5 9.7 91 0.7 NNW 19 20 10 11 1017.5 1017.5 0.0
03/12:30am 11.3 8.1 9.9 91 0.7 N 17 22 9 12 1017.8 1017.8 0.0
03/12:00am 11.9 8.4 10.3 90 0.8 NNW 19 24 10 13 1017.9 1017.9 0.0
 
Date/Time
EST
Temp
°C
App
Temp
°C
Dew
Point
Rel
Hum
%
Delta-T
°C
Wind Press
QNH
hPa
Press
MSL
hPa
Rain
since 9 am
mm
Dir
 
Spd
km/h
Gust
km/h
Spd
kts
Gust
kts
02/11:30pm 10.9 7.3 9.7 92 0.6 NNW 19 22 10 12 1018.3 1018.3 0.0
02/11:00pm 10.5 7.0 8.9 90 0.8 N 17 17 9 9 1018.5 1018.5 0.0
02/10:30pm 10.9 7.8 9.0 88 0.9 N 15 17 8 9 1018.5 1018.5 0.0
02/10:00pm 10.9 8.3 9.2 89 0.8 NNW 13 15 7 8 1018.7 1018.7 0.0
02/09:30pm 11.2 8.6 9.3 88 1.0 NNW 13 15 7 8 1018.6 1018.6 0.0
02/09:00pm 11.8 8.9 9.5 86 1.2 N 15 17 8 9 1018.4 1018.4 0.0
02/08:30pm 12.0 9.5 9.7 86 1.2 NNW 13 13 7 7 1018.3 1018.3 0.0

Other Formats:

Comma delimited format used in spreadsheet applications
http://www.bom.gov.au/fwo/IDN60801/IDN60801.94572.axf

JavaScript Object Notation format (JSON) in row-major order
http://www.bom.gov.au/fwo/IDN60801/IDN60801.94572.json